createdAt,value
2018-07-23T00:00:47.279Z,21.80
2018-07-23T00:03:14.750Z,21.80
2018-07-23T00:05:42.300Z,21.80
2018-07-23T00:08:09.802Z,21.70
2018-07-23T00:10:39.285Z,21.70
2018-07-23T00:13:06.771Z,21.70
2018-07-23T00:15:34.256Z,21.60
2018-07-23T00:18:01.712Z,21.50
2018-07-23T00:20:29.172Z,21.50
2018-07-23T00:22:56.619Z,21.40
2018-07-23T00:27:51.799Z,21.30
2018-07-23T00:30:19.234Z,21.20
2018-07-23T00:32:46.627Z,21.20
2018-07-23T00:35:14.226Z,21.10
2018-07-23T00:37:44.975Z,21.00
2018-07-23T00:40:12.527Z,21.00
2018-07-23T00:42:40.086Z,21.00
2018-07-23T00:45:08.887Z,20.90
2018-07-23T00:47:38.261Z,20.90
2018-07-23T00:50:05.919Z,20.80
2018-07-23T00:55:01.652Z,20.80
2018-07-23T00:57:29.231Z,20.80
2018-07-23T00:59:56.731Z,20.70
2018-07-23T01:02:24.200Z,20.70
2018-07-23T01:04:51.634Z,20.80
2018-07-23T01:07:19.075Z,20.80
2018-07-23T01:09:46.667Z,20.80
2018-07-23T01:12:23.020Z,20.80
2018-07-23T01:14:50.472Z,20.80
2018-07-23T01:17:17.927Z,20.70
2018-07-23T01:19:45.368Z,20.70
2018-07-23T01:24:40.348Z,20.60
2018-07-23T01:27:08.434Z,20.50
2018-07-23T01:29:35.873Z,20.50
2018-07-23T01:32:03.391Z,20.40
2018-07-23T01:34:30.826Z,20.40
2018-07-23T01:41:53.164Z,20.30
2018-07-23T01:44:20.619Z,20.20
2018-07-23T01:46:48.151Z,20.20
2018-07-23T01:49:15.620Z,20.20
2018-07-23T01:51:43.047Z,20.10
2018-07-23T01:54:10.476Z,20.10
2018-07-23T02:01:32.771Z,20.00
2018-07-23T02:04:00.187Z,20.00
2018-07-23T02:06:27.571Z,19.90
2018-07-23T02:08:54.996Z,19.90
2018-07-23T02:11:22.523Z,19.90
2018-07-23T02:13:49.916Z,19.80
2018-07-23T02:16:17.329Z,19.80
2018-07-23T02:18:44.754Z,19.80
2018-07-23T02:21:12.140Z,19.70
2018-07-23T02:23:39.530Z,19.70
2018-07-23T02:26:07.063Z,19.70
2018-07-23T02:28:34.441Z,19.70
2018-07-23T02:31:01.864Z,19.70
2018-07-23T02:33:29.359Z,19.70
2018-07-23T02:35:56.743Z,19.80
2018-07-23T02:38:24.142Z,19.80
2018-07-23T02:40:51.711Z,19.80
2018-07-23T02:43:19.103Z,19.80
2018-07-23T02:45:46.483Z,19.90
2018-07-23T02:48:13.880Z,19.90
2018-07-23T02:50:41.239Z,19.90
2018-07-23T02:53:08.763Z,20.00
2018-07-23T02:55:36.224Z,20.00
2018-07-23T02:58:03.683Z,20.00
2018-07-23T03:00:31.940Z,20.00
2018-07-23T03:02:59.366Z,20.10
2018-07-23T03:05:26.836Z,20.10
2018-07-23T03:07:54.272Z,20.20
2018-07-23T03:10:21.740Z,20.20
2018-07-23T03:12:49.220Z,20.20
2018-07-23T03:15:16.668Z,20.20
2018-07-23T03:17:44.111Z,20.20
2018-07-23T03:20:11.638Z,20.10
2018-07-23T03:22:39.186Z,20.20
2018-07-23T03:25:06.685Z,20.20
2018-07-23T03:27:34.135Z,20.30
2018-07-23T03:30:01.565Z,20.30
2018-07-23T03:32:29.020Z,20.30
2018-07-23T03:34:56.470Z,20.40
2018-07-23T03:37:24.035Z,20.40
2018-07-23T03:39:51.466Z,20.40
2018-07-23T03:42:18.931Z,20.40
2018-07-23T03:47:13.951Z,20.40
2018-07-23T03:52:08.987Z,20.40
2018-07-23T03:57:03.927Z,20.40
2018-07-23T03:59:31.402Z,20.40
2018-07-23T04:01:58.891Z,20.40
2018-07-23T04:04:26.335Z,20.40
2018-07-23T04:06:53.779Z,20.40
2018-07-23T04:09:21.238Z,20.40
2018-07-23T04:11:48.694Z,20.30
2018-07-23T04:14:16.132Z,20.40
2018-07-23T04:16:43.596Z,20.40
2018-07-23T04:19:11.057Z,20.30
2018-07-23T04:21:38.538Z,20.40
2018-07-23T04:24:06.052Z,20.30
2018-07-23T04:26:33.518Z,20.30
2018-07-23T04:29:00.940Z,20.30
2018-07-23T04:33:55.975Z,20.30
2018-07-23T04:36:23.427Z,20.30
2018-07-23T04:38:50.863Z,20.20
2018-07-23T04:41:18.279Z,20.20
2018-07-23T04:43:45.735Z,20.20
2018-07-23T04:46:13.185Z,20.10
2018-07-23T04:48:40.615Z,20.00
2018-07-23T04:51:08.155Z,20.20
2018-07-23T04:53:35.629Z,20.10
2018-07-23T04:56:03.113Z,20.10
2018-07-23T04:58:30.579Z,20.20
2018-07-23T05:00:58.011Z,20.20
2018-07-23T05:03:25.451Z,20.20
2018-07-23T05:05:52.960Z,20.20
2018-07-23T05:08:20.508Z,20.10
2018-07-23T05:10:47.959Z,20.00
2018-07-23T05:13:15.423Z,20.10
2018-07-23T05:15:42.859Z,20.20
2018-07-23T05:20:37.736Z,20.50
2018-07-23T05:23:05.399Z,20.80
2018-07-23T05:25:32.852Z,21.10
2018-07-23T05:40:23.468Z,25.20
2018-07-23T05:42:51.067Z,25.80
2018-07-23T05:45:18.603Z,26.00
2018-07-23T05:50:13.602Z,26.00
2018-07-23T05:52:41.071Z,25.90
2018-07-23T05:55:08.516Z,25.70
2018-07-23T05:57:36.006Z,25.40
2018-07-23T06:00:04.435Z,25.00
2018-07-23T06:04:59.310Z,24.30
2018-07-23T06:07:26.751Z,24.10
2018-07-23T06:09:54.203Z,23.70
2018-07-23T06:12:21.655Z,23.50
2018-07-23T06:14:49.111Z,23.30
2018-07-23T06:17:17.015Z,23.10
2018-07-23T06:19:44.441Z,22.90
2018-07-23T06:22:11.874Z,22.80
2018-07-23T06:27:06.759Z,22.90
2018-07-23T06:29:34.179Z,22.90
2018-07-23T06:32:01.644Z,22.90
2018-07-23T06:34:29.179Z,23.00
2018-07-23T06:36:56.633Z,23.10
2018-07-23T06:41:51.582Z,23.20
2018-07-23T06:44:19.069Z,23.20
2018-07-23T06:46:46.599Z,23.20
2018-07-23T06:51:41.607Z,23.20
2018-07-23T06:54:09.110Z,23.10
2018-07-23T06:56:36.623Z,23.10
2018-07-23T06:59:04.044Z,23.20
2018-07-23T07:01:31.495Z,23.20
2018-07-23T07:03:58.932Z,23.20
2018-07-23T07:06:26.391Z,23.30
2018-07-23T07:08:53.854Z,23.40
2018-07-23T07:11:21.346Z,23.40
2018-07-23T07:13:48.810Z,23.40
2018-07-23T07:16:16.252Z,23.40
2018-07-23T07:18:43.891Z,23.50
2018-07-23T07:21:12.463Z,23.50
2018-07-23T07:23:39.974Z,23.60
2018-07-23T07:28:35.872Z,23.60
2018-07-23T07:31:03.327Z,23.70
2018-07-23T07:33:30.788Z,23.80
2018-07-23T07:38:25.863Z,23.70
2018-07-23T07:43:21.083Z,24.00
2018-07-23T07:45:48.547Z,24.10
2018-07-23T07:48:16.062Z,24.20
2018-07-23T07:50:43.634Z,24.20
2018-07-23T07:53:11.105Z,24.40
2018-07-23T07:55:38.624Z,24.40
2018-07-23T07:58:06.091Z,24.50
2018-07-23T08:00:33.534Z,24.60
2018-07-23T08:03:00.981Z,24.50
2018-07-23T08:05:28.427Z,24.70
2018-07-23T08:07:55.875Z,24.80
2018-07-23T08:10:24.520Z,24.90
2018-07-23T08:15:19.552Z,25.00
2018-07-23T08:20:14.479Z,25.30
2018-07-23T08:22:42.009Z,25.30
2018-07-23T08:25:09.609Z,25.20
2018-07-23T08:27:37.018Z,25.20
2018-07-23T08:30:05.640Z,25.30
2018-07-23T08:32:33.092Z,25.30
2018-07-23T08:35:00.610Z,25.40
2018-07-23T08:37:27.854Z,25.30
2018-07-23T08:39:55.179Z,25.40
2018-07-23T08:42:22.463Z,25.40
2018-07-23T08:44:51.810Z,25.40
2018-07-23T08:49:46.288Z,25.50
2018-07-23T08:52:13.575Z,25.60
2018-07-23T08:54:40.863Z,25.70
2018-07-23T08:57:08.127Z,25.70
2018-07-23T08:59:35.350Z,25.70
2018-07-23T09:02:02.569Z,25.70
2018-07-23T09:04:29.774Z,25.70
2018-07-23T09:06:56.991Z,25.80
2018-07-23T09:09:24.212Z,25.80
2018-07-23T09:11:51.398Z,25.70
2018-07-23T09:14:18.619Z,25.70
2018-07-23T09:19:13.023Z,25.90
2018-07-23T09:21:40.242Z,26.00
2018-07-23T09:24:07.635Z,26.30
2018-07-23T09:26:34.906Z,26.40
2018-07-23T09:29:02.131Z,26.50
2018-07-23T09:31:29.356Z,26.50
2018-07-23T09:33:56.555Z,26.70
2018-07-23T09:36:23.750Z,26.70
2018-07-23T09:38:50.951Z,26.70
2018-07-23T09:41:18.201Z,26.80
2018-07-23T09:43:45.412Z,26.90
2018-07-23T09:46:12.643Z,27.00
2018-07-23T09:48:39.844Z,27.20
2018-07-23T09:51:08.168Z,27.30
2018-07-23T09:53:35.387Z,27.40
2018-07-23T09:56:02.607Z,27.40
2018-07-23T09:58:29.811Z,27.60
2018-07-23T10:01:01.604Z,27.70
2018-07-23T10:03:29.005Z,27.80
2018-07-23T10:05:56.179Z,28.00
2018-07-23T10:08:23.416Z,28.10
2018-07-23T10:10:50.643Z,28.40
2018-07-23T10:13:17.843Z,28.80
2018-07-23T10:15:45.059Z,29.10
2018-07-23T10:18:12.271Z,29.40
2018-07-23T10:20:39.723Z,29.60
2018-07-23T10:23:06.928Z,29.70
2018-07-23T10:25:34.252Z,29.70
2018-07-23T10:28:01.665Z,29.70
2018-07-23T10:30:28.881Z,29.50
2018-07-23T10:32:56.080Z,29.40
2018-07-23T10:35:23.344Z,29.70
2018-07-23T10:37:50.625Z,29.70
2018-07-23T10:40:17.859Z,29.90
2018-07-23T10:42:45.124Z,30.10
2018-07-23T10:45:12.419Z,30.00
2018-07-23T10:47:39.643Z,30.00
2018-07-23T10:50:06.867Z,30.20
2018-07-23T10:52:34.122Z,30.70
2018-07-23T10:55:01.315Z,30.90
2018-07-23T10:57:28.533Z,31.00
2018-07-23T10:59:55.742Z,31.10
2018-07-23T11:02:22.962Z,31.10
2018-07-23T11:04:50.280Z,31.00
2018-07-23T11:07:17.550Z,31.00
2018-07-23T11:09:44.719Z,31.10
2018-07-23T11:12:12.021Z,31.40
2018-07-23T11:14:39.215Z,31.30
2018-07-23T11:17:06.411Z,31.10
2018-07-23T11:19:33.708Z,31.40
2018-07-23T11:22:01.011Z,31.40
2018-07-23T11:24:28.202Z,31.70
2018-07-23T11:26:55.424Z,31.70
2018-07-23T11:29:22.627Z,31.80
2018-07-23T11:31:49.931Z,32.30
2018-07-23T11:34:17.229Z,32.50
2018-07-23T11:36:44.463Z,32.30
2018-07-23T11:39:12.102Z,32.30
2018-07-23T11:41:39.497Z,32.70
2018-07-23T11:44:06.680Z,32.80
2018-07-23T11:46:34.335Z,32.60
2018-07-23T11:49:01.936Z,32.50
2018-07-23T11:51:29.135Z,32.40
2018-07-23T11:53:56.351Z,32.30
2018-07-23T11:56:24.612Z,32.30
2018-07-23T11:58:51.951Z,32.30
2018-07-23T12:01:19.459Z,31.90
2018-07-23T12:03:46.712Z,31.50
2018-07-23T12:06:13.995Z,31.10
2018-07-23T12:08:41.230Z,30.80
2018-07-23T12:11:08.477Z,30.60
2018-07-23T12:13:35.719Z,30.40
2018-07-23T12:16:02.963Z,30.30
2018-07-23T12:18:30.183Z,30.60
2018-07-23T12:20:57.442Z,31.00
2018-07-23T12:23:24.767Z,31.50
2018-07-23T12:25:53.124Z,31.80
2018-07-23T12:28:20.378Z,32.10
2018-07-23T12:30:47.619Z,32.20
2018-07-23T12:33:14.883Z,32.30
2018-07-23T12:35:42.222Z,32.30
2018-07-23T12:38:09.475Z,32.20
2018-07-23T12:40:36.732Z,31.90
2018-07-23T12:43:04.155Z,31.40
2018-07-23T12:45:31.399Z,31.00
2018-07-23T12:47:58.655Z,30.70
2018-07-23T12:50:25.915Z,30.70
2018-07-23T12:52:53.210Z,30.60
2018-07-23T12:55:20.588Z,30.40
2018-07-23T13:00:15.132Z,30.10
2018-07-23T13:02:42.348Z,30.10
2018-07-23T13:05:09.727Z,30.40
2018-07-23T13:07:37.141Z,30.90
2018-07-23T13:10:04.575Z,31.30
2018-07-23T13:12:32.003Z,31.70
2018-07-23T13:17:27.056Z,32.40
2018-07-23T13:19:54.685Z,32.50
2018-07-23T13:22:22.155Z,32.50
2018-07-23T13:24:49.571Z,32.50
2018-07-23T13:27:17.066Z,32.60
2018-07-23T13:29:44.538Z,32.50
2018-07-23T13:32:12.018Z,32.60
2018-07-23T13:37:06.841Z,32.50
2018-07-23T13:39:34.283Z,32.50
2018-07-23T13:42:01.705Z,32.30
2018-07-23T13:44:29.198Z,32.10
2018-07-23T13:46:56.611Z,32.20
2018-07-23T13:49:24.031Z,32.10
2018-07-23T13:54:18.874Z,31.70
2018-07-23T13:56:46.272Z,31.60
2018-07-23T13:59:13.749Z,31.80
2018-07-23T14:01:41.182Z,32.10
2018-07-23T14:04:08.678Z,32.40
2018-07-23T14:06:36.195Z,32.70
2018-07-23T14:09:06.615Z,32.70
2018-07-23T14:11:34.148Z,32.40
2018-07-23T14:14:01.614Z,32.20
2018-07-23T14:16:29.031Z,32.00
2018-07-23T14:18:56.499Z,31.90
2018-07-23T14:21:25.056Z,32.00
2018-07-23T14:23:53.720Z,32.00
2018-07-23T14:26:21.155Z,32.10
2018-07-23T14:28:48.600Z,32.10
2018-07-23T14:31:16.033Z,32.10
2018-07-23T14:33:43.489Z,32.10
2018-07-23T14:36:10.940Z,32.00
2018-07-23T14:38:38.425Z,31.70
2018-07-23T14:41:05.951Z,31.80
2018-07-23T14:43:33.567Z,32.00
2018-07-23T14:46:00.980Z,32.10
2018-07-23T14:48:28.490Z,32.20
2018-07-23T14:50:56.016Z,32.30
2018-07-23T14:53:23.634Z,32.30
2018-07-23T14:55:51.195Z,32.10
2018-07-23T14:58:18.672Z,32.10
2018-07-23T15:00:46.137Z,32.10
2018-07-23T15:03:13.574Z,32.10
2018-07-23T15:05:41.148Z,32.20
2018-07-23T15:08:08.610Z,32.40
2018-07-23T15:10:36.043Z,32.50
2018-07-23T15:13:04.811Z,32.40
2018-07-23T15:15:32.404Z,32.20
2018-07-23T15:17:59.927Z,31.90
2018-07-23T15:22:54.792Z,31.70
2018-07-23T15:25:22.258Z,31.90
2018-07-23T15:27:49.792Z,31.90
2018-07-23T15:30:17.199Z,31.70
2018-07-23T15:32:44.656Z,31.80
2018-07-23T15:35:12.103Z,31.90
2018-07-23T15:37:39.575Z,32.00
2018-07-23T15:40:08.136Z,32.00
2018-07-23T15:42:35.589Z,32.20
2018-07-23T15:45:03.107Z,32.30
2018-07-23T15:49:58.131Z,32.40
2018-07-23T15:52:25.587Z,32.30
2018-07-23T15:54:53.123Z,32.20
2018-07-23T15:57:20.635Z,32.10
2018-07-23T15:59:48.614Z,32.00
2018-07-23T16:02:17.131Z,31.90
2018-07-23T16:04:44.504Z,31.80
2018-07-23T16:07:11.892Z,31.70
2018-07-23T16:09:39.463Z,31.50
2018-07-23T16:12:06.889Z,31.40
2018-07-23T16:14:34.327Z,31.50
2018-07-23T16:17:01.831Z,31.40
2018-07-23T16:19:29.258Z,31.40
2018-07-23T16:21:56.663Z,31.30
2018-07-23T16:24:24.090Z,31.10
2018-07-23T16:26:51.539Z,30.90
2018-07-23T16:29:19.002Z,30.90
2018-07-23T16:31:46.420Z,30.80
2018-07-23T16:34:13.819Z,30.70
2018-07-23T16:36:41.261Z,30.50
2018-07-23T16:39:10.156Z,30.50
2018-07-23T16:41:37.916Z,30.50
2018-07-23T16:44:05.663Z,30.50
2018-07-23T16:46:33.057Z,30.50
2018-07-23T16:49:00.511Z,30.50
2018-07-23T16:51:28.974Z,30.40
2018-07-23T16:53:56.374Z,30.40
2018-07-23T16:56:23.819Z,30.50
2018-07-23T16:58:51.271Z,30.50
2018-07-23T17:01:19.895Z,30.50
2018-07-23T17:03:47.344Z,30.40
2018-07-23T17:06:14.906Z,30.50
2018-07-23T17:08:42.455Z,30.50
2018-07-23T17:13:37.368Z,30.50
2018-07-23T17:16:04.823Z,30.40
2018-07-23T17:18:32.269Z,30.50
2018-07-23T17:20:59.902Z,30.40
2018-07-23T17:23:31.462Z,30.40
2018-07-23T17:25:58.996Z,30.40
2018-07-23T17:28:26.455Z,30.40
2018-07-23T17:30:53.899Z,30.40
2018-07-23T17:33:21.323Z,30.40
2018-07-23T17:35:48.760Z,30.30
2018-07-23T17:38:16.235Z,30.30
2018-07-23T17:40:43.851Z,30.30
2018-07-23T17:43:11.489Z,30.20
2018-07-23T17:45:38.916Z,30.30
2018-07-23T17:48:06.380Z,30.30
2018-07-23T17:50:33.811Z,30.20
2018-07-23T17:53:01.260Z,30.20
2018-07-23T17:55:28.732Z,30.10
2018-07-23T17:57:56.185Z,30.10
2018-07-23T18:00:23.610Z,30.00
2018-07-23T18:02:51.099Z,30.00
2018-07-23T18:05:18.514Z,29.90
2018-07-23T18:07:46.015Z,29.80
2018-07-23T18:10:13.422Z,29.80
2018-07-23T18:12:40.799Z,29.70
2018-07-23T18:15:08.349Z,29.80
2018-07-23T18:17:35.879Z,29.70
2018-07-23T18:20:03.402Z,29.70
2018-07-23T18:22:30.853Z,29.60
2018-07-23T18:24:58.275Z,29.60
2018-07-23T18:27:25.951Z,29.60
2018-07-23T18:29:53.486Z,29.60
2018-07-23T18:32:20.863Z,29.50
2018-07-23T18:34:48.268Z,29.40
2018-07-23T18:37:15.685Z,29.30
2018-07-23T18:39:43.159Z,29.30
2018-07-23T18:42:11.623Z,29.20
2018-07-23T18:44:40.109Z,29.20
2018-07-23T18:47:08.678Z,29.10
2018-07-23T18:49:51.070Z,29.00
2018-07-23T18:52:19.259Z,28.90
2018-07-23T18:54:47.960Z,28.80
2018-07-23T18:57:16.572Z,28.70
2018-07-23T18:59:44.042Z,28.60
2018-07-23T19:02:12.631Z,28.50
2018-07-23T19:04:40.066Z,28.40
2018-07-23T19:07:07.783Z,28.30
2018-07-23T19:09:35.215Z,28.20
2018-07-23T19:12:02.800Z,28.10
2018-07-23T19:14:30.396Z,28.00
2018-07-23T19:16:58.751Z,28.00
2018-07-23T19:19:26.241Z,28.00
2018-07-23T19:21:53.875Z,27.90
2018-07-23T19:24:21.407Z,27.80
2018-07-23T19:26:48.810Z,27.70
2018-07-23T19:29:16.248Z,27.60
2018-07-23T19:31:43.716Z,27.60
2018-07-23T19:34:11.234Z,27.60
2018-07-23T19:36:38.634Z,27.50
2018-07-23T19:39:07.380Z,27.40
2018-07-23T19:41:34.936Z,27.30
2018-07-23T19:44:02.351Z,27.30
2018-07-23T19:46:29.880Z,27.10
2018-07-23T19:48:57.415Z,27.00
2018-07-23T19:51:24.831Z,27.00
2018-07-23T19:53:52.232Z,26.90
2018-07-23T19:56:19.669Z,26.80
2018-07-23T19:58:47.083Z,26.70
2018-07-23T20:01:14.543Z,26.60
2018-07-23T20:06:09.527Z,26.40
2018-07-23T20:08:36.974Z,26.20
2018-07-23T20:13:31.916Z,26.10
2018-07-23T20:15:59.543Z,26.00
2018-07-23T20:18:26.991Z,26.00
2018-07-23T20:20:54.485Z,25.90
2018-07-23T20:25:49.964Z,25.70
2018-07-23T20:28:17.475Z,25.70
2018-07-23T20:30:44.946Z,25.60
2018-07-23T20:33:13.504Z,25.60
2018-07-23T20:35:41.128Z,25.50
2018-07-23T20:38:08.908Z,25.50
2018-07-23T20:40:36.479Z,25.40
2018-07-23T20:43:06.012Z,25.30
2018-07-23T20:45:33.440Z,25.30
2018-07-23T20:48:00.853Z,25.20
2018-07-23T20:50:28.295Z,25.20
2018-07-23T20:55:24.445Z,25.00
2018-07-23T20:57:51.987Z,25.00
2018-07-23T21:00:19.450Z,25.00
2018-07-23T21:02:46.851Z,24.90
2018-07-23T21:05:14.244Z,24.80
2018-07-23T21:10:09.103Z,24.70
2018-07-23T21:12:37.655Z,24.60
2018-07-23T21:15:06.625Z,24.50
2018-07-23T21:17:34.071Z,24.50
2018-07-23T21:20:01.536Z,24.40
2018-07-23T21:22:28.934Z,24.40
2018-07-23T21:24:56.360Z,24.40
2018-07-23T21:27:23.882Z,24.30
2018-07-23T21:29:51.327Z,24.20
2018-07-23T21:32:18.763Z,24.20
2018-07-23T21:34:46.195Z,24.20
2018-07-23T21:39:44.728Z,24.10
2018-07-23T21:42:12.120Z,24.10
2018-07-23T21:44:39.635Z,24.10
2018-07-23T21:47:07.142Z,24.00
2018-07-23T21:49:34.675Z,23.90
2018-07-23T21:52:02.089Z,23.90
2018-07-23T21:54:29.800Z,23.80
2018-07-23T21:56:57.295Z,23.80
2018-07-23T21:59:24.763Z,23.70
2018-07-23T22:01:52.251Z,23.70
2018-07-23T22:04:19.731Z,23.70
2018-07-23T22:06:47.242Z,23.70
2018-07-23T22:11:42.157Z,23.60
2018-07-23T22:14:09.592Z,23.60
2018-07-23T22:16:37.642Z,23.60
2018-07-23T22:19:05.118Z,23.50
2018-07-23T22:21:32.583Z,23.50
2018-07-23T22:24:00.063Z,23.40
2018-07-23T22:26:27.498Z,23.40
2018-07-23T22:28:54.944Z,23.30
2018-07-23T22:31:22.358Z,23.20
2018-07-23T22:36:17.682Z,23.20
2018-07-23T22:38:45.139Z,23.10
2018-07-23T22:41:12.618Z,23.10
2018-07-23T22:43:40.155Z,23.00
2018-07-23T22:46:07.875Z,23.00
2018-07-23T22:48:35.434Z,23.00
2018-07-23T22:51:02.908Z,22.90
2018-07-23T22:53:30.355Z,22.90
2018-07-23T22:55:57.802Z,22.90
2018-07-23T22:58:25.254Z,22.80
2018-07-23T23:00:52.714Z,22.80
2018-07-23T23:03:20.180Z,22.70
2018-07-23T23:05:48.695Z,22.70
2018-07-23T23:08:16.130Z,22.60
2018-07-23T23:10:43.568Z,22.60
2018-07-23T23:13:11.092Z,22.60
2018-07-23T23:15:38.607Z,22.50
2018-07-23T23:18:06.145Z,22.50
2018-07-23T23:20:33.652Z,22.40
2018-07-23T23:23:01.127Z,22.40
2018-07-23T23:25:28.759Z,22.30
2018-07-23T23:27:56.207Z,22.30
2018-07-23T23:30:23.836Z,22.20
2018-07-23T23:32:51.338Z,22.20
2018-07-23T23:35:18.838Z,22.10
2018-07-23T23:37:46.301Z,22.10
2018-07-23T23:40:13.939Z,22.10
2018-07-23T23:42:41.383Z,22.00
2018-07-23T23:45:08.832Z,22.00
2018-07-23T23:47:36.259Z,22.00
2018-07-23T23:50:04.335Z,21.90
2018-07-23T23:52:31.762Z,21.90
2018-07-23T23:54:59.246Z,22.00
2018-07-23T23:57:26.686Z,22.00
2018-07-23T23:59:54.163Z,22.00
